Time;durP1;ratioP1;P1;durP2;ratioP2;P2;SDS_P1;SDS_P2;PMS_P1;PMS_P2;Temp;Humidity;BMP_temperature;BMP_pressure;BME280_temperature;BME280_humidity;BME280_pressure;Samples;Min_cycle;Max_cycle;Signal;HPM_P1;HPM_P2
2022/12/25 00:01:20;;;;;;;35.30;10.10;;;7.20;99.90;;;;;;5057331;28;20822;-71
2022/12/25 00:03:47;;;;;;;28.13;7.90;;;7.20;99.90;;;;;;5056649;28;20722;-70
2022/12/25 00:06:14;;;;;;;25.43;9.10;;;7.30;99.90;;;;;;5058099;28;20242;-69
2022/12/25 00:08:41;;;;;;;29.77;7.53;;;7.30;99.90;;;;;;5056853;28;20278;-70
2022/12/25 00:11:12;;;;;;;32.83;8.63;;;7.40;99.90;;;;;;5040748;28;20536;-73
2022/12/25 00:13:40;;;;;;;22.83;7.33;;;7.50;99.90;;;;;;5039252;28;20544;-70
2022/12/25 00:16:10;;;;;;;25.77;8.23;;;7.50;99.90;;;;;;5038627;28;20200;-70
2022/12/25 00:18:37;;;;;;;22.77;6.83;;;7.50;99.90;;;;;;5039401;28;20207;-70
2022/12/25 00:21:06;;;;;;;31.23;7.63;;;7.50;99.90;;;;;;5038392;28;20231;-69
2022/12/25 00:23:34;;;;;;;23.90;6.87;;;7.50;99.90;;;;;;5038989;28;20290;-70
2022/12/25 00:26:06;;;;;;;31.50;8.03;;;7.50;99.90;;;;;;5055095;28;20227;-71
2022/12/25 00:28:34;;;;;;;28.47;7.37;;;7.40;99.90;;;;;;5055832;28;20662;-71
2022/12/25 00:31:14;;;;;;;24.03;6.50;;;7.40;99.90;;;;;;5058373;28;20277;-70
2022/12/25 00:33:43;;;;;;;28.43;7.90;;;7.30;99.90;;;;;;5039564;28;20195;-71
2022/12/25 00:36:11;;;;;;;23.80;6.87;;;7.30;99.90;;;;;;5051492;28;20206;-70
2022/12/25 00:38:39;;;;;;;21.67;6.93;;;7.40;99.90;;;;;;5053874;28;20702;-70
2022/12/25 00:41:08;;;;;;;21.60;7.40;;;7.60;99.90;;;;;;5039522;28;20207;-69
2022/12/25 00:43:37;;;;;;;27.27;7.37;;;7.70;99.90;;;;;;5040228;28;20248;-70
2022/12/25 00:46:05;;;;;;;18.87;6.90;;;7.70;99.90;;;;;;5038276;28;20235;-70
2022/12/25 00:48:33;;;;;;;23.03;7.10;;;7.70;99.90;;;;;;5036856;28;20268;-74
2022/12/25 00:51:03;;;;;;;22.53;6.97;;;7.70;99.90;;;;;;5037196;28;20214;-70
2022/12/25 00:53:30;;;;;;;30.87;7.50;;;7.70;99.90;;;;;;5050141;28;20261;-70
2022/12/25 00:56:00;;;;;;;24.13;7.73;;;7.70;99.90;;;;;;5038987;28;20245;-71
2022/12/25 00:58:29;;;;;;;23.90;7.63;;;7.60;99.90;;;;;;5052883;28;20203;-68
2022/12/25 01:00:57;;;;;;;18.60;6.57;;;7.60;99.90;;;;;;5036132;28;20497;-70
2022/12/25 01:03:24;;;;;;;27.63;7.07;;;7.60;99.90;;;;;;5035997;28;20232;-70
2022/12/25 01:06:00;;;;;;;32.87;7.50;;;7.60;99.90;;;;;;5013901;28;20229;-69
2022/12/25 01:08:30;;;;;;;25.50;8.33;;;7.60;99.90;;;;;;5043058;28;20214;-70
2022/12/25 01:10:59;;;;;;;22.07;8.23;;;7.50;99.90;;;;;;5040330;28;20295;-70
2022/12/25 01:13:27;;;;;;;19.93;7.63;;;7.40;99.90;;;;;;5040499;28;20624;-70
2022/12/25 01:15:55;;;;;;;21.10;6.97;;;7.30;99.90;;;;;;5013867;28;20615;-70
2022/12/25 01:18:23;;;;;;;22.00;7.67;;;7.40;99.90;;;;;;5042948;28;20213;-69
2022/12/25 01:20:50;;;;;;;35.80;10.83;;;7.60;99.90;;;;;;5056872;28;20234;-69
2022/12/25 01:23:17;;;;;;;25.27;9.30;;;7.50;99.90;;;;;;5032594;28;20191;-70
2022/12/25 01:25:44;;;;;;;23.93;6.97;;;7.50;99.90;;;;;;5042908;28;20203;-69
2022/12/25 01:28:11;;;;;;;32.50;8.20;;;7.60;99.90;;;;;;5042483;28;20290;-68
2022/12/25 01:30:46;;;;;;;30.07;6.97;;;7.60;99.90;;;;;;5043069;28;20198;-67
2022/12/25 01:33:13;;;;;;;25.40;8.60;;;7.60;99.90;;;;;;5025516;28;20282;-68
2022/12/25 01:35:40;;;;;;;24.87;7.87;;;7.60;99.90;;;;;;5036776;28;20617;-69
2022/12/25 01:38:08;;;;;;;19.47;7.00;;;7.60;99.90;;;;;;5058097;28;20584;-70
2022/12/25 01:40:35;;;;;;;21.50;7.50;;;7.60;99.90;;;;;;5057031;28;20204;-70
2022/12/25 01:43:02;;;;;;;21.17;7.53;;;7.70;99.90;;;;;;5024252;28;20200;-69
2022/12/25 01:45:36;;;;;;;27.47;8.57;;;7.60;99.90;;;;;;5037655;28;20196;-69
2022/12/25 01:48:08;;;;;;;25.30;8.00;;;7.60;99.90;;;;;;5058431;28;20192;-68
2022/12/25 01:50:38;;;;;;;26.63;9.17;;;7.50;99.90;;;;;;5040796;28;20848;-70
2022/12/25 01:53:06;;;;;;;29.20;8.23;;;7.40;99.90;;;;;;5039286;28;20618;-69
2022/12/25 01:55:34;;;;;;;21.30;8.17;;;7.30;99.90;;;;;;5041364;28;20208;-70
2022/12/25 01:58:02;;;;;;;24.57;7.53;;;7.30;99.90;;;;;;5057822;28;20226;-69
2022/12/25 02:00:30;;;;;;;29.07;7.97;;;7.30;99.90;;;;;;5041460;28;20718;-69
2022/12/25 02:02:58;;;;;;;23.47;7.13;;;7.30;99.90;;;;;;5039196;28;20469;-69
2022/12/25 02:05:28;;;;;;;23.50;7.23;;;7.30;99.90;;;;;;5056142;28;20230;-68
2022/12/25 02:07:59;;;;;;;22.20;8.80;;;7.40;99.90;;;;;;5038175;28;20745;-63
2022/12/25 02:10:26;;;;;;;27.20;8.23;;;7.40;99.90;;;;;;5014210;28;20187;-63
2022/12/25 02:12:54;;;;;;;16.57;7.77;;;7.40;99.90;;;;;;5035896;28;20195;-65
2022/12/25 02:15:25;;;;;;;24.47;7.23;;;7.40;99.90;;;;;;5040333;28;20292;-64
2022/12/25 02:18:01;;;;;;;27.33;7.97;;;7.40;99.90;;;;;;5056949;28;20284;-64
2022/12/25 02:20:46;;;;;;;19.80;7.37;;;7.40;99.90;;;;;;5036161;28;20210;-65
2022/12/25 02:23:38;;;;;;;23.60;8.10;;;7.40;99.90;;;;;;5056626;28;20548;-65
2022/12/25 02:26:31;;;;;;;30.03;7.97;;;7.50;99.90;;;;;;5039244;28;20675;-65
2022/12/25 02:29:08;;;;;;;20.97;7.40;;;7.50;99.90;;;;;;5031689;28;20205;-66
2022/12/25 02:32:04;;;;;;;18.47;7.57;;;7.50;99.90;;;;;;5021992;28;20199;-66
2022/12/25 02:34:44;;;;;;;16.77;7.30;;;7.50;99.90;;;;;;5055175;28;20295;-67
2022/12/25 02:37:43;;;;;;;26.70;7.90;;;7.50;99.90;;;;;;5051622;28;20530;-67
2022/12/25 02:40:37;;;;;;;25.80;9.47;;;7.50;99.90;;;;;;5023621;28;20228;-63
2022/12/25 03:08:53;;;;;;;19.40;5.70;;;8.30;99.90;;;;;;5054283;28;20645;-63
2022/12/25 03:11:32;;;;;;;18.07;6.10;;;8.40;99.90;;;;;;5038038;28;20268;-66
2022/12/25 03:16:52;;;;;;;14.40;5.50;;;8.50;99.90;;;;;;5007307;28;20223;-67
2022/12/25 03:27:52;;;;;;;12.77;5.00;;;8.80;99.90;;;;;;5057190;28;20194;-66
2022/12/25 03:33:31;;;;;;;11.20;4.67;;;8.90;99.90;;;;;;5051065;28;20203;-70
2022/12/25 03:36:40;;;;;;;11.60;4.67;;;8.80;99.90;;;;;;5053999;28;20233;-66
2022/12/25 04:38:03;;;;;;;8.60;3.90;;;8.90;99.90;;;;;;5036201;28;20233;-69
2022/12/25 04:40:30;;;;;;;7.97;3.73;;;8.90;99.90;;;;;;5038108;28;20666;-70
2022/12/25 04:42:57;;;;;;;10.03;4.00;;;8.90;99.90;;;;;;5059754;28;20290;-70
2022/12/25 04:45:24;;;;;;;10.77;3.80;;;8.90;99.90;;;;;;5040334;28;20570;-68
2022/12/25 04:47:51;;;;;;;8.00;4.10;;;8.90;99.90;;;;;;5038984;28;20581;-69
2022/12/25 04:50:18;;;;;;;9.33;4.53;;;8.90;99.90;;;;;;5041789;28;20241;-70
2022/12/25 04:52:45;;;;;;;7.03;3.57;;;9.00;99.90;;;;;;5058599;28;20206;-70
2022/12/25 04:55:12;;;;;;;9.40;4.30;;;8.90;99.90;;;;;;5044017;28;20245;-71
2022/12/25 04:57:39;;;;;;;9.20;4.10;;;8.90;99.90;;;;;;5062011;28;20191;-71
2022/12/25 05:00:07;;;;;;;14.03;4.37;;;8.90;99.90;;;;;;5042622;28;20832;-73
2022/12/25 05:02:34;;;;;;;9.43;3.63;;;8.90;99.90;;;;;;5057208;28;20698;-71
2022/12/25 05:05:01;;;;;;;7.93;3.87;;;9.10;99.90;;;;;;5058619;28;20620;-71
2022/12/25 05:07:28;;;;;;;7.43;4.00;;;9.00;99.90;;;;;;5060261;28;20207;-73
2022/12/25 05:09:55;;;;;;;8.20;3.80;;;9.10;99.90;;;;;;5060363;28;20763;-72
2022/12/25 05:12:22;;;;;;;8.10;3.77;;;9.10;99.90;;;;;;5040890;28;20207;-72
2022/12/25 05:14:49;;;;;;;7.63;4.00;;;9.00;99.90;;;;;;5060278;28;20195;-71
2022/12/25 05:17:16;;;;;;;7.37;3.83;;;9.00;99.90;;;;;;5042684;28;20286;-73
2022/12/25 05:19:43;;;;;;;8.10;3.80;;;9.00;99.90;;;;;;5024941;28;20256;-71
2022/12/25 05:22:10;;;;;;;11.47;3.67;;;9.00;99.90;;;;;;5040707;28;20198;-71
2022/12/25 05:24:37;;;;;;;7.80;3.97;;;8.90;99.90;;;;;;5060044;28;20202;-72
2022/12/25 05:27:04;;;;;;;10.70;4.20;;;8.90;99.90;;;;;;5060453;28;20565;-70
2022/12/25 05:29:31;;;;;;;9.43;4.17;;;8.90;99.90;;;;;;5061339;28;20245;-70
2022/12/25 05:31:58;;;;;;;9.03;4.37;;;8.90;99.90;;;;;;5042782;28;20261;-73
2022/12/25 05:34:25;;;;;;;9.10;4.80;;;8.90;99.90;;;;;;5059690;28;20723;-71
2022/12/25 05:36:52;;;;;;;7.27;3.73;;;8.80;99.90;;;;;;5056071;28;20658;-71
2022/12/25 05:39:19;;;;;;;9.27;3.50;;;8.60;99.90;;;;;;5036095;28;20191;-72
2022/12/25 05:41:46;;;;;;;8.33;3.87;;;8.50;99.90;;;;;;5058767;28;20295;-70
2022/12/25 05:44:13;;;;;;;10.80;4.00;;;8.40;99.90;;;;;;5039140;28;20724;-69
2022/12/25 05:46:40;;;;;;;9.43;3.87;;;8.30;99.90;;;;;;5055319;28;20221;-71
2022/12/25 05:49:08;;;;;;;8.53;4.60;;;8.20;99.90;;;;;;5040041;28;20196;-72
2022/12/25 05:51:35;;;;;;;9.73;3.80;;;8.20;1.00;;;;;;5036812;28;20260;-71
2022/12/25 05:54:02;;;;;;;14.33;5.10;;;8.20;1.00;;;;;;5055655;28;20188;-72
2022/12/25 05:56:29;;;;;;;10.80;4.20;;;8.20;1.00;;;;;;5039142;28;20187;-70
2022/12/25 05:58:56;;;;;;;13.40;4.47;;;8.20;1.00;;;;;;5056728;28;20191;-68
2022/12/25 06:01:25;;;;;;;11.40;5.00;;;8.10;1.00;;;;;;5038174;28;20254;-69
2022/12/25 06:03:53;;;;;;;10.17;4.20;;;8.10;1.00;;;;;;5036491;28;20232;-70
2022/12/25 06:06:20;;;;;;;11.70;4.40;;;8.20;1.00;;;;;;5019383;28;20224;-71
2022/12/25 06:08:47;;;;;;;12.90;5.33;;;8.20;1.00;;;;;;5035557;28;20266;-70
2022/12/25 06:11:14;;;;;;;12.07;5.30;;;8.20;1.00;;;;;;5036949;28;20721;-73
2022/12/25 06:13:41;;;;;;;7.83;5.03;;;8.30;1.00;;;;;;5018164;28;20196;-71
2022/12/25 06:16:10;;;;;;;11.27;5.47;;;8.30;1.00;;;;;;5036321;28;20199;-70
2022/12/25 06:18:41;;;;;;;13.43;5.43;;;8.30;1.00;;;;;;5035854;28;20192;-70
2022/12/25 06:21:10;;;;;;;8.30;5.43;;;8.30;1.00;;;;;;5033205;28;20290;-73
2022/12/25 06:23:37;;;;;;;10.13;5.57;;;8.20;1.00;;;;;;5033620;28;20659;-70
2022/12/25 06:26:09;;;;;;;10.00;4.90;;;8.30;1.00;;;;;;5036014;28;20257;-71
2022/12/25 06:28:36;;;;;;;11.43;5.10;;;8.30;1.00;;;;;;5037309;28;20215;-70
2022/12/25 06:31:16;;;;;;;10.13;5.03;;;8.10;1.00;;;;;;5036473;28;20190;-70
2022/12/25 06:33:43;;;;;;;9.80;4.60;;;8.00;1.00;;;;;;5018724;28;20191;-70
2022/12/25 06:36:16;;;;;;;14.40;4.67;;;7.90;1.00;;;;;;5036998;28;20211;-70
2022/12/25 06:38:44;;;;;;;15.10;4.80;;;7.90;1.00;;;;;;5035329;28;20192;-71
2022/12/25 06:41:14;;;;;;;12.50;5.07;;;8.00;1.40;;;;;;5033965;28;20249;-70
2022/12/25 06:43:42;;;;;;;12.50;4.53;;;8.00;1.00;;;;;;5021175;28;20674;-71
2022/12/25 06:46:11;;;;;;;10.43;4.40;;;7.90;1.00;;;;;;5020109;28;20299;-70
2022/12/25 06:48:39;;;;;;;12.27;5.03;;;7.90;1.00;;;;;;5036736;28;20640;-70
2022/12/25 06:51:07;;;;;;;9.13;4.80;;;8.00;12.00;;;;;;5040486;28;20787;-73
2022/12/25 06:53:35;;;;;;;11.00;4.67;;;8.00;1.00;;;;;;5034447;28;20615;-69
2022/12/25 06:56:14;;;;;;;8.83;4.33;;;8.00;1.00;;;;;;5035299;28;20656;-70
2022/12/25 06:58:43;;;;;;;10.00;4.63;;;8.00;1.00;;;;;;5036029;28;20191;-70
2022/12/25 07:01:20;;;;;;;11.57;4.53;;;7.90;1.00;;;;;;5037287;28;20196;-71
2022/12/25 07:03:50;;;;;;;6.03;4.00;;;7.80;1.00;;;;;;5037716;28;20234;-70
2022/12/25 07:06:18;;;;;;;11.67;4.27;;;7.60;1.00;;;;;;5056237;28;20198;-70
2022/12/25 07:08:45;;;;;;;14.00;4.73;;;7.60;1.00;;;;;;5054687;28;20183;-71
2022/12/25 07:11:12;;;;;;;11.27;5.00;;;7.50;56.60;;;;;;5057157;28;20188;-70
2022/12/25 07:13:39;;;;;;;8.77;4.10;;;7.50;99.90;;;;;;5057113;28;20191;-72
2022/12/25 07:16:06;;;;;;;10.17;4.57;;;7.40;99.90;;;;;;5039074;28;20554;-73
2022/12/25 07:18:34;;;;;;;17.37;10.80;;;7.40;99.90;;;;;;5057210;28;20260;-70
2022/12/25 07:21:10;;;;;;;10.47;4.73;;;7.30;99.90;;;;;;5056718;28;20200;-71
2022/12/25 07:23:38;;;;;;;12.00;5.50;;;7.30;1.00;;;;;;5055285;28;20553;-71
2022/12/25 07:26:05;;;;;;;11.03;5.63;;;7.30;1.00;;;;;;5053823;28;20218;-71
2022/12/25 07:28:32;;;;;;;12.13;4.83;;;7.30;1.00;;;;;;5057763;28;20199;-69
2022/12/25 07:31:01;;;;;;;10.03;5.60;;;7.40;1.00;;;;;;5051380;28;20248;-69
2022/12/25 07:33:29;;;;;;;9.60;4.67;;;7.40;1.00;;;;;;5036747;28;20740;-69
2022/12/25 07:35:57;;;;;;;10.47;5.20;;;7.60;1.00;;;;;;5054431;28;20231;-69
2022/12/25 07:38:24;;;;;;;9.53;4.57;;;7.70;1.00;;;;;;5054966;28;20198;-71
2022/12/25 07:40:52;;;;;;;12.50;5.60;;;7.70;1.00;;;;;;5037585;28;20187;-69
2022/12/25 07:43:19;;;;;;;10.13;5.20;;;7.70;1.00;;;;;;5037932;28;20192;-70
2022/12/25 07:45:46;;;;;;;11.63;4.70;;;7.80;1.00;;;;;;5055125;28;20274;-71
2022/12/25 07:48:13;;;;;;;9.57;4.70;;;7.80;1.00;;;;;;5054769;28;20238;-72
2022/12/25 07:50:43;;;;;;;11.13;5.03;;;7.90;1.00;;;;;;5030230;28;20286;-70
2022/12/25 07:53:10;;;;;;;11.30;4.83;;;8.00;1.00;;;;;;5039273;28;20192;-70
2022/12/25 07:55:36;;;;;;;7.37;4.50;;;8.00;1.00;;;;;;5039007;28;20198;-70
2022/12/25 07:58:03;;;;;;;10.73;6.00;;;7.90;1.00;;;;;;5037588;28;20289;-70
2022/12/25 08:00:33;;;;;;;12.53;4.53;;;8.00;1.00;;;;;;5055390;28;20265;-71
2022/12/25 08:03:00;;;;;;;7.60;4.10;;;8.00;99.90;;;;;;5055808;28;20682;-72
2022/12/25 08:05:27;;;;;;;8.63;4.47;;;8.00;99.90;;;;;;5054551;28;20239;-71
2022/12/25 08:07:54;;;;;;;6.80;4.20;;;8.00;99.90;;;;;;5057385;28;20214;-70
2022/12/25 08:10:24;;;;;;;10.97;4.37;;;8.10;99.90;;;;;;5054078;28;20194;-71
2022/12/25 08:12:54;;;;;;;8.63;5.50;;;8.00;99.90;;;;;;5036020;28;20585;-70
2022/12/25 08:15:22;;;;;;;9.60;5.03;;;8.10;80.90;;;;;;5059130;28;20195;-71
2022/12/25 08:17:49;;;;;;;7.90;4.07;;;8.10;26.50;;;;;;5023692;28;20203;-73
2022/12/25 08:20:15;;;;;;;9.33;4.53;;;8.10;1.00;;;;;;5062113;28;20981;-72
2022/12/25 08:22:43;;;;;;;8.43;3.80;;;8.20;1.00;;;;;;5059791;28;20191;-71
2022/12/25 08:25:10;;;;;;;5.47;4.00;;;8.20;1.00;;;;;;5059472;28;20251;-72
2022/12/25 08:27:36;;;;;;;8.17;3.97;;;8.30;1.00;;;;;;5039856;28;20292;-71
2022/12/25 08:30:04;;;;;;;10.77;4.00;;;8.30;1.00;;;;;;5040868;28;20194;-71
2022/12/25 08:32:32;;;;;;;6.30;3.40;;;8.30;1.00;;;;;;5040876;28;20187;-70
2022/12/25 08:34:59;;;;;;;7.10;3.83;;;8.30;1.00;;;;;;5041857;28;20206;-70
2022/12/25 08:37:28;;;;;;;7.90;3.70;;;8.40;1.00;;;;;;5042419;28;20195;-69
2022/12/25 08:39:55;;;;;;;7.60;3.20;;;8.40;99.90;;;;;;5055230;28;20218;-72
2022/12/25 08:42:22;;;;;;;5.70;3.33;;;8.50;99.90;;;;;;5030691;28;20218;-69
2022/12/25 08:44:49;;;;;;;13.47;5.70;;;8.70;99.90;;;;;;5058591;28;20241;-70
2022/12/25 08:47:17;;;;;;;9.03;4.33;;;8.70;99.90;;;;;;5040582;28;20211;-70
2022/12/25 08:49:44;;;;;;;6.63;3.20;;;8.80;99.90;;;;;;5060726;28;20222;-71
2022/12/25 08:52:11;;;;;;;8.93;3.03;;;8.90;99.90;;;;;;5022986;28;20249;-71
2022/12/25 08:54:38;;;;;;;10.33;3.10;;;8.90;99.90;;;;;;5057499;28;20236;-71
2022/12/25 08:57:05;;;;;;;6.10;3.43;;;9.00;99.90;;;;;;5058900;28;20215;-71
2022/12/25 08:59:32;;;;;;;8.93;3.80;;;9.00;99.90;;;;;;5043597;28;20273;-68
2022/12/25 09:01:59;;;;;;;7.37;3.60;;;9.00;99.90;;;;;;5057240;28;20285;-72
2022/12/25 09:04:26;;;;;;;9.10;4.30;;;9.00;99.90;;;;;;5043799;28;20722;-73
2022/12/25 09:06:53;;;;;;;10.47;3.70;;;9.00;99.90;;;;;;5060718;28;20194;-71
2022/12/25 09:09:20;;;;;;;7.27;3.53;;;8.90;99.90;;;;;;5062340;28;20291;-71
2022/12/25 09:11:48;;;;;;;6.70;3.13;;;8.90;99.90;;;;;;5062087;28;20191;-71
2022/12/25 09:14:15;;;;;;;6.90;3.23;;;8.90;99.90;;;;;;5011813;28;20631;-71
2022/12/25 09:16:42;;;;;;;10.23;3.23;;;8.80;99.90;;;;;;5044839;28;20200;-71
2022/12/25 09:19:09;;;;;;;6.67;3.10;;;8.80;99.90;;;;;;5043174;28;20519;-70
2022/12/25 09:21:36;;;;;;;18.97;3.43;;;8.80;99.90;;;;;;5060948;28;20250;-71
2022/12/25 09:24:03;;;;;;;14.83;12.20;;;8.70;99.90;;;;;;5061399;28;20195;-69
2022/12/25 09:26:30;;;;;;;11.17;7.73;;;8.80;99.90;;;;;;5060641;28;20241;-72
2022/12/25 09:28:57;;;;;;;51.67;39.53;;;8.80;99.90;;;;;;5060939;28;20213;-72
2022/12/25 09:31:24;;;;;;;17.03;10.97;;;8.90;99.90;;;;;;5059987;28;20663;-70
2022/12/25 09:33:56;;;;;;;15.23;9.50;;;8.90;99.90;;;;;;5056195;28;20202;-71
2022/12/25 09:36:24;;;;;;;7.87;4.27;;;8.90;99.90;;;;;;5042007;28;20695;-72
2022/12/25 09:38:51;;;;;;;13.07;8.77;;;8.90;99.90;;;;;;5043076;28;20248;-72
2022/12/25 09:41:36;;;;;;;14.07;6.33;;;9.00;99.90;;;;;;5062815;28;20195;-73
2022/12/25 09:44:15;;;;;;;17.00;8.07;;;8.90;99.90;;;;;;5057794;28;20654;-72
2022/12/25 09:47:05;;;;;;;11.27;5.60;;;8.90;99.90;;;;;;5026047;28;20609;-72
2022/12/25 09:49:49;;;;;;;10.07;5.60;;;9.00;99.90;;;;;;5044858;28;20203;-73
2022/12/25 09:52:21;;;;;;;8.37;4.63;;;9.00;99.90;;;;;;5060745;28;20244;-73
2022/12/25 09:55:12;;;;;;;8.73;3.80;;;9.00;99.90;;;;;;5057406;28;20196;-73
2022/12/25 09:57:51;;;;;;;8.03;3.37;;;8.90;99.90;;;;;;5026420;28;20203;-73
2022/12/25 10:00:22;;;;;;;5.23;3.40;;;8.90;99.90;;;;;;5057613;28;20194;-74
2022/12/25 10:03:10;;;;;;;9.07;3.70;;;8.90;1.00;;;;;;5040905;28;20701;-73
2022/12/25 10:06:05;;;;;;;5.00;3.30;;;8.80;1.00;;;;;;5056248;28;20295;-74
2022/12/25 10:08:46;;;;;;;14.50;9.73;;;8.80;1.00;;;;;;5051624;28;20207;-73
2022/12/25 10:11:37;;;;;;;18.57;9.13;;;8.80;1.00;;;;;;5039049;28;20202;-75
2022/12/25 10:14:19;;;;;;;9.53;4.73;;;8.80;11.70;;;;;;5042174;28;20207;-72
2022/12/25 10:17:10;;;;;;;7.50;4.20;;;8.80;1.00;;;;;;5060745;28;20194;-72
2022/12/25 10:19:51;;;;;;;7.27;4.23;;;8.70;99.90;;;;;;5055213;28;20191;-72
2022/12/25 10:22:34;;;;;;;8.77;4.77;;;8.70;1.00;;;;;;5039971;28;20298;-71
2022/12/25 10:25:03;;;;;;;8.83;4.37;;;8.70;43.60;;;;;;5058454;28;20792;-73
2022/12/25 10:27:39;;;;;;;7.57;4.50;;;8.70;1.00;;;;;;5057915;28;20284;-72
2022/12/25 10:30:16;;;;;;;8.10;3.83;;;8.70;1.00;;;;;;5053487;28;20188;-71
2022/12/25 10:32:44;;;;;;;8.73;5.83;;;8.70;1.00;;;;;;5059093;28;20194;-71
2022/12/25 10:35:13;;;;;;;36.87;22.80;;;8.70;1.00;;;;;;5042384;28;20670;-72
2022/12/25 10:37:42;;;;;;;21.87;11.37;;;8.70;83.70;;;;;;5032006;28;20237;-72
2022/12/25 10:40:36;;;;;;;15.70;9.37;;;8.60;1.00;;;;;;5058186;28;20267;-75
2022/12/25 10:43:11;;;;;;;9.37;5.30;;;8.70;1.00;;;;;;5060780;28;20607;-72
2022/12/25 10:45:43;;;;;;;26.40;5.40;;;8.70;1.00;;;;;;5042156;28;20270;-72
2022/12/25 10:48:24;;;;;;;9.50;5.53;;;8.70;99.90;;;;;;5044448;28;20225;-72
2022/12/25 10:50:51;;;;;;;13.23;6.07;;;8.80;99.90;;;;;;5058494;28;20188;-72
2022/12/25 10:53:24;;;;;;;9.77;5.17;;;8.80;99.90;;;;;;5041647;28;20593;-77
2022/12/25 10:56:03;;;;;;;13.70;5.90;;;8.90;99.90;;;;;;5057310;28;20735;-75
2022/12/25 10:58:31;;;;;;;14.03;8.13;;;8.90;1.00;;;;;;5059398;28;20600;-73
2022/12/25 11:01:02;;;;;;;12.83;6.67;;;9.00;1.00;;;;;;5041378;28;20245;-72
2022/12/25 11:03:32;;;;;;;15.17;6.73;;;9.00;1.00;;;;;;5041655;28;20231;-72
2022/12/25 11:06:01;;;;;;;13.07;7.03;;;9.10;1.00;;;;;;5026416;28;20562;-72
2022/12/25 11:08:30;;;;;;;14.53;6.80;;;9.10;1.00;;;;;;5058955;28;20546;-73
2022/12/25 11:11:04;;;;;;;15.33;6.30;;;9.20;1.00;;;;;;5055692;28;20199;-69
2022/12/25 11:13:38;;;;;;;13.90;6.37;;;9.20;64.90;;;;;;5016664;28;20252;-68
2022/12/25 11:16:29;;;;;;;8.47;6.07;;;9.20;99.90;;;;;;5058466;28;20237;-69
2022/12/25 11:18:57;;;;;;;16.10;9.37;;;9.20;99.90;;;;;;5040284;28;20198;-69
2022/12/25 11:21:27;;;;;;;12.10;7.83;;;9.20;99.90;;;;;;5040476;28;20666;-70
2022/12/25 11:23:58;;;;;;;14.50;8.13;;;9.20;99.90;;;;;;5023506;28;20258;-69
2022/12/25 11:26:28;;;;;;;11.20;6.33;;;9.10;99.90;;;;;;5058834;28;20243;-68
2022/12/25 11:28:55;;;;;;;13.13;7.07;;;9.10;1.00;;;;;;5060143;28;20288;-68
2022/12/25 11:31:37;;;;;;;9.63;6.93;;;9.20;1.00;;;;;;5040765;28;20277;-70
2022/12/25 11:34:54;;;;;;;11.03;5.67;;;9.10;1.00;;;;;;5033883;28;20204;-68
2022/12/25 11:37:31;;;;;;;10.23;6.13;;;9.10;1.00;;;;;;4948920;28;20213;-68
2022/12/25 11:39:59;;;;;;;9.93;5.37;;;9.20;1.00;;;;;;5047237;28;20237;-69
2022/12/25 11:42:34;;;;;;;6.90;4.57;;;9.10;1.00;;;;;;5041605;28;20203;-70
2022/12/25 11:45:17;;;;;;;8.37;4.70;;;9.10;1.00;;;;;;5059068;28;20226;-69
2022/12/25 11:47:50;;;;;;;10.80;5.40;;;9.10;1.00;;;;;;5048528;28;20191;-70
2022/12/25 11:50:31;;;;;;;14.00;5.20;;;9.10;21.70;;;;;;5024552;28;20203;-70
2022/12/25 11:53:04;;;;;;;11.77;5.03;;;9.10;99.90;;;;;;5057249;28;20195;-69
2022/12/25 11:55:44;;;;;;;13.33;5.53;;;9.10;99.90;;;;;;5039090;28;20743;-70
2022/12/25 11:58:39;;;;;;;12.47;5.27;;;9.10;99.90;;;;;;5040733;28;20303;-70
2022/12/25 12:01:29;;;;;;;9.73;5.63;;;9.10;99.90;;;;;;5036874;28;20215;-70
2022/12/25 12:03:59;;;;;;;10.97;5.50;;;9.10;1.00;;;;;;4987792;28;20666;-70
2022/12/25 12:06:51;;;;;;;8.57;5.77;;;9.20;1.00;;;;;;5036432;28;20232;-70
2022/12/25 12:10:09;;;;;;;10.07;6.33;;;9.10;1.00;;;;;;5036429;28;20556;-69
2022/12/25 12:12:56;;;;;;;7.83;6.97;;;9.10;99.90;;;;;;5004186;28;20192;-69
2022/12/25 12:15:43;;;;;;;8.10;5.60;;;9.10;99.90;;;;;;5038000;28;20657;-69
2022/12/25 12:18:27;;;;;;;12.57;5.70;;;9.10;99.90;;;;;;5032469;28;20278;-69
2022/12/25 12:21:08;;;;;;;7.80;5.60;;;9.10;1.00;;;;;;5033366;28;20671;-69
2022/12/25 12:24:10;;;;;;;9.60;6.03;;;9.10;1.00;;;;;;5037082;28;20195;-69
2022/12/25 12:26:41;;;;;;;11.77;6.30;;;9.10;1.00;;;;;;5014479;28;20235;-69
2022/12/25 12:29:26;;;;;;;12.90;8.27;;;9.00;1.00;;;;;;5027746;28;20199;-69
2022/12/25 12:31:58;;;;;;;12.10;7.37;;;9.00;1.00;;;;;;5032310;28;20218;-69
2022/12/25 12:34:33;;;;;;;12.20;9.30;;;9.00;1.00;;;;;;5037803;28;20199;-72
2022/12/25 12:37:04;;;;;;;11.50;8.20;;;9.10;1.00;;;;;;5035642;28;20211;-70
2022/12/25 12:39:38;;;;;;;11.33;7.17;;;9.00;1.00;;;;;;5036038;28;20204;-69
2022/12/25 12:42:34;;;;;;;10.27;6.83;;;9.00;1.00;;;;;;5022124;28;20285;-69
2022/12/25 12:45:15;;;;;;;8.40;6.30;;;9.00;1.00;;;;;;5029158;28;20599;-69
2022/12/25 12:47:45;;;;;;;9.83;6.47;;;9.00;1.00;;;;;;5029040;28;20339;-69
2022/12/25 12:50:38;;;;;;;13.47;7.40;;;9.00;1.00;;;;;;5032646;28;20238;-69
2022/12/25 12:53:39;;;;;;;10.47;7.73;;;9.00;1.00;;;;;;5021633;28;20208;-68
2022/12/25 12:56:19;;;;;;;8.77;7.10;;;8.90;1.00;;;;;;4981990;28;20294;-69
2022/12/25 12:58:51;;;;;;;10.67;8.00;;;9.00;1.00;;;;;;5013274;28;20200;-69
2022/12/25 13:01:33;;;;;;;12.83;8.40;;;9.00;1.00;;;;;;5035266;28;20254;-69
2022/12/25 13:04:12;;;;;;;13.60;8.33;;;9.00;1.00;;;;;;5043663;28;20235;-68
2022/12/25 13:06:47;;;;;;;8.93;8.00;;;9.00;1.00;;;;;;5042322;28;20187;-68
2022/12/25 13:09:14;;;;;;;13.83;10.83;;;9.00;1.00;;;;;;5056424;28;20203;-69
2022/12/25 13:11:43;;;;;;;17.57;11.47;;;9.00;99.90;;;;;;5039573;28;20890;-68
2022/12/25 13:14:17;;;;;;;20.23;13.30;;;9.00;44.20;;;;;;5038297;28;20196;-68
2022/12/25 13:16:47;;;;;;;23.93;13.13;;;9.00;1.00;;;;;;5043689;28;20605;-68
2022/12/25 13:19:17;;;;;;;18.77;12.30;;;9.00;1.00;;;;;;5027029;28;20272;-68
2022/12/25 13:21:55;;;;;;;16.30;9.53;;;9.00;1.00;;;;;;5024923;28;20191;-68
2022/12/25 13:24:31;;;;;;;15.53;10.43;;;9.00;1.00;;;;;;5053789;28;20197;-69
2022/12/25 13:26:58;;;;;;;13.67;9.37;;;9.10;53.30;;;;;;5038105;28;20693;-68
2022/12/25 13:29:35;;;;;;;11.83;8.27;;;9.20;99.90;;;;;;5058465;28;20204;-68
2022/12/25 13:32:07;;;;;;;10.27;8.60;;;9.10;99.90;;;;;;5023287;28;20211;-68
2022/12/25 13:34:39;;;;;;;13.13;8.97;;;9.10;99.90;;;;;;5025412;28;20582;-68
2022/12/25 13:37:13;;;;;;;12.70;9.20;;;9.10;99.90;;;;;;5058157;28;20196;-69
2022/12/25 13:39:52;;;;;;;15.57;9.47;;;9.00;99.90;;;;;;5056652;28;20727;-69
2022/12/25 13:42:25;;;;;;;12.77;9.47;;;9.10;99.90;;;;;;5022459;28;20210;-74
2022/12/25 13:45:01;;;;;;;14.40;9.57;;;9.10;99.90;;;;;;5039795;28;20666;-68
2022/12/25 13:47:34;;;;;;;12.33;9.13;;;9.10;99.90;;;;;;5055945;28;20575;-68
2022/12/25 13:50:31;;;;;;;14.53;9.03;;;9.10;99.90;;;;;;5042179;28;20272;-68
2022/12/25 13:53:14;;;;;;;12.80;9.47;;;9.10;1.00;;;;;;5040467;28;20575;-68
2022/12/25 13:55:46;;;;;;;12.63;11.00;;;9.10;1.00;;;;;;5042694;28;20754;-71
2022/12/25 13:58:29;;;;;;;16.10;11.40;;;9.10;1.00;;;;;;5040129;28;20204;-68
2022/12/25 14:00:58;;;;;;;14.50;10.80;;;9.10;1.00;;;;;;5054927;28;20551;-69
2022/12/25 14:03:28;;;;;;;14.13;10.87;;;9.10;99.90;;;;;;5038209;28;20218;-68
2022/12/25 14:06:00;;;;;;;21.90;14.27;;;9.10;1.00;;;;;;5054164;28;20200;-68
2022/12/25 14:08:32;;;;;;;29.27;19.57;;;9.10;1.00;;;;;;5037104;28;20215;-68
2022/12/25 14:11:05;;;;;;;23.40;16.03;;;9.10;1.00;;;;;;5056370;28;20601;-68
2022/12/25 14:13:39;;;;;;;23.00;17.70;;;9.10;1.00;;;;;;5053488;28;20239;-68
2022/12/25 14:16:07;;;;;;;28.37;20.90;;;9.10;1.00;;;;;;5038507;28;20195;-68
2022/12/25 14:18:34;;;;;;;21.10;15.60;;;9.20;1.00;;;;;;5054033;28;20238;-68
2022/12/25 14:21:04;;;;;;;28.63;21.10;;;9.10;1.00;;;;;;5039074;28;20310;-68
2022/12/25 14:23:45;;;;;;;27.67;19.93;;;9.10;1.00;;;;;;5035939;28;20274;-70
2022/12/25 14:26:23;;;;;;;27.53;19.60;;;9.10;1.00;;;;;;5058190;28;20294;-69
2022/12/25 14:29:04;;;;;;;31.77;21.23;;;9.10;1.00;;;;;;5040795;28;20279;-68
2022/12/25 14:31:32;;;;;;;22.73;17.03;;;9.10;1.00;;;;;;5040785;28;20199;-68
2022/12/25 14:34:01;;;;;;;25.43;18.70;;;9.10;1.00;;;;;;5025545;28;20196;-68
2022/12/25 14:36:32;;;;;;;21.53;14.83;;;9.10;1.00;;;;;;5056168;28;20220;-66
2022/12/25 14:39:02;;;;;;;24.17;18.80;;;9.10;1.00;;;;;;5058762;28;20202;-67
2022/12/25 14:41:40;;;;;;;28.53;16.00;;;9.10;1.00;;;;;;5057541;28;20278;-67
2022/12/25 14:44:38;;;;;;;29.43;20.70;;;9.10;1.00;;;;;;5039575;28;20215;-68
2022/12/25 14:47:15;;;;;;;31.00;24.33;;;9.10;1.00;;;;;;5037456;28;20674;-71
2022/12/25 14:49:42;;;;;;;30.93;19.40;;;9.10;1.00;;;;;;5042368;28;20233;-71
2022/12/25 14:52:16;;;;;;;28.20;20.87;;;9.10;1.00;;;;;;5040337;28;20198;-70
2022/12/25 14:55:03;;;;;;;38.33;24.70;;;9.10;1.00;;;;;;5057774;28;20182;-70
2022/12/25 14:57:36;;;;;;;35.37;27.27;;;9.10;1.00;;;;;;5041729;28;20689;-70
2022/12/25 15:00:07;;;;;;;32.37;24.17;;;9.20;1.00;;;;;;5038688;28;20730;-70